首页
METAR-TAF:

METAR-TAF

机场 :

布琼布拉, 布隆迪

布瓊布拉國際機場

纬度: 03-19S, 经度: 029-19E, 海拔: 782米

当前天气观测

该预报发布于1小时和30分钟前的13:00 UTC
风速13节,风向,有时为00节阵风
温度 26°C
湿度 70%
气压 1010 hPa
能见度10公里或以上
多云层高于10000英尺

METAR: HBBA 221300Z 1801300KT 9999 FEW10 BKN100 26/20 Q1010 NOSIG

时间: 16:30 (14:30 UTC)

预报

该预报发布于3小时和30分钟前的11:00 UTC
预报有效从22日的 12点(UTC)到 23日的 18点(UTC)
风速10节,风向,有时为20节阵风
能见度10公里或以上
少量云层高于3000英尺
多云层高于10000英尺
几率 40%
在之间 TE和MP点(UTC)
风速10节,风向,有时为25节阵风
能见度10公里或以上
散云层高于2500英尺, 积雨云.
多云层高于10000英尺
散云层高于10000英尺
少量云层高于2500英尺
多云层高于10000英尺
雷暴, 雨, 阵雨
几率 30%
在之间 TE和MP点(UTC)
风速14节,风向,有时为25节阵风
能見度: 7000
散云层高于2500英尺, 积雨云.
多云层高于10000英尺
雷暴, 雨

TAF: HBBA 221100Z 2212/2318 18010G20KT 9999 FEW030 BKN100 PROB40 TEMPO2213/2219 08015G25KT 8000 TSRA OR SHRA SCT025CB BKN100 BECMG2220/2222 36004KT 9999 FW030 SCT100 BECMG2307/2309 18010KT 9999 FEW025 BKN100 PROB30 TEMPO2311/2316 09014G25KT 7000 TSRA SCT025CB BKN100

超过4000个机场的气象观测和天气预报(METAR&TAF报告)。

可查询的气象台以黄色和红色小点在地图上表示。

将鼠标移到小点上方,可查看气象台名称。

然后点击查看天气观测和预报。

如需切换地图:点击带黑十字的绿色按钮放大地图;点击带横线的绿色按钮缩小地图;或者点击绿色箭头查看邻近地区的地图。


METAR-TAF: